createdAt,value
2018-05-08T00:00:39.140Z,36.90
2018-05-08T00:04:11.629Z,37.00
2018-05-08T00:07:44.107Z,37.10
2018-05-08T00:11:17.364Z,37.10
2018-05-08T00:14:49.840Z,37.10
2018-05-08T00:18:22.311Z,37.10
2018-05-08T00:21:54.798Z,37.20
2018-05-08T00:25:27.291Z,37.10
2018-05-08T00:28:59.782Z,37.20
2018-05-08T00:32:32.244Z,37.30
2018-05-08T00:40:29.225Z,37.50
2018-05-08T00:44:01.826Z,37.60
2018-05-08T00:47:35.177Z,37.90
2018-05-08T00:51:07.770Z,37.90
2018-05-08T00:54:52.120Z,37.90
2018-05-08T00:58:24.673Z,38.10
2018-05-08T01:01:57.226Z,38.20
2018-05-08T01:05:29.784Z,38.40
2018-05-08T01:09:02.374Z,38.50
2018-05-08T01:12:35.014Z,38.60
2018-05-08T01:16:07.573Z,38.70
2018-05-08T01:19:40.127Z,38.60
2018-05-08T01:23:13.445Z,38.70
2018-05-08T01:26:46.050Z,38.70
2018-05-08T01:30:19.348Z,38.70
2018-05-08T01:33:51.912Z,38.70
2018-05-08T01:37:24.524Z,38.60
2018-05-08T01:40:57.112Z,38.60
2018-05-08T01:44:29.681Z,38.70
2018-05-08T01:48:02.242Z,38.70
2018-05-08T01:51:35.574Z,38.80
2018-05-08T01:55:08.136Z,38.80
2018-05-08T01:58:40.704Z,38.80
2018-05-08T02:02:14.031Z,38.90
2018-05-08T02:05:46.578Z,38.80
2018-05-08T02:09:19.149Z,38.90
2018-05-08T02:12:51.729Z,39.00
2018-05-08T02:16:24.281Z,39.60
2018-05-08T02:19:56.837Z,39.30
2018-05-08T02:23:30.164Z,39.60
2018-05-08T02:30:59.198Z,40.10
2018-05-08T02:34:31.765Z,40.10
2018-05-08T02:38:04.332Z,40.30
2018-05-08T02:41:37.656Z,40.60
2018-05-08T02:45:10.215Z,40.70
2018-05-08T02:48:42.782Z,40.70
2018-05-08T02:52:15.343Z,40.90
2018-05-08T02:55:47.898Z,41.00
2018-05-08T02:59:20.465Z,41.00
2018-05-08T03:02:53.032Z,41.20
2018-05-08T03:06:25.589Z,41.30
2018-05-08T03:09:58.145Z,41.30
2018-05-08T03:13:30.713Z,41.40
2018-05-08T03:17:03.296Z,41.60
2018-05-08T03:20:35.859Z,41.70
2018-05-08T03:24:08.415Z,41.70
2018-05-08T03:27:40.988Z,41.80
2018-05-08T03:31:13.560Z,42.00
2018-05-08T03:34:46.128Z,42.10
2018-05-08T03:38:18.683Z,42.20
2018-05-08T03:41:51.258Z,42.20
2018-05-08T03:45:24.621Z,42.60
2018-05-08T03:48:57.184Z,42.60
2018-05-08T03:52:29.732Z,42.80
2018-05-08T03:56:02.291Z,42.90
2018-05-08T03:59:34.844Z,43.00
2018-05-08T04:03:19.966Z,43.20
2018-05-08T04:07:05.061Z,43.70
2018-05-08T04:10:37.621Z,43.70
2018-05-08T04:14:10.945Z,44.60
2018-05-08T04:17:43.522Z,44.00
2018-05-08T04:21:16.090Z,44.10
2018-05-08T04:24:49.446Z,44.40
2018-05-08T04:28:22.004Z,44.40
2018-05-08T04:31:54.581Z,44.40
2018-05-08T04:35:27.140Z,44.40
2018-05-08T04:39:00.544Z,44.50
2018-05-08T04:42:33.868Z,44.50
2018-05-08T04:46:06.436Z,44.50
2018-05-08T04:49:39.757Z,44.40
2018-05-08T04:53:12.341Z,44.50
2018-05-08T04:56:44.896Z,44.40
2018-05-08T05:00:17.468Z,45.00
2018-05-08T05:03:50.028Z,44.30
2018-05-08T05:07:22.591Z,44.20
2018-05-08T05:10:55.162Z,44.20
2018-05-08T05:14:27.732Z,44.30
2018-05-08T05:18:01.080Z,44.50
2018-05-08T05:21:33.658Z,44.50
2018-05-08T05:25:06.216Z,44.50
2018-05-08T05:28:38.789Z,45.30
2018-05-08T05:32:11.361Z,44.70
2018-05-08T05:35:44.696Z,44.60
2018-05-08T05:39:17.257Z,44.60
2018-05-08T05:42:49.839Z,44.60
2018-05-08T05:46:23.173Z,44.60
2018-05-08T05:49:55.737Z,44.50
2018-05-08T05:53:28.293Z,44.20
2018-05-08T05:57:01.632Z,43.10
2018-05-08T06:00:34.187Z,43.10
2018-05-08T06:04:07.521Z,43.40
2018-05-08T06:07:40.075Z,43.40
2018-05-08T06:11:13.421Z,43.20
2018-05-08T06:14:45.981Z,43.20
2018-05-08T06:18:18.545Z,43.10
2018-05-08T06:21:51.903Z,42.90
2018-05-08T06:25:24.467Z,42.90
2018-05-08T06:28:57.036Z,42.90
2018-05-08T06:32:29.607Z,42.60
2018-05-08T06:36:02.172Z,42.50
2018-05-08T06:39:35.607Z,42.30
2018-05-08T06:43:08.116Z,42.30
2018-05-08T06:46:40.739Z,42.10
2018-05-08T06:50:13.257Z,42.00
2018-05-08T06:53:45.828Z,41.90
2018-05-08T06:57:18.405Z,41.20
2018-05-08T07:00:50.971Z,40.70
2018-05-08T07:04:23.527Z,40.60
2018-05-08T07:07:56.101Z,41.20
2018-05-08T07:11:28.659Z,40.10
2018-05-08T07:15:01.224Z,40.00
2018-05-08T07:18:34.564Z,39.60
2018-05-08T07:22:07.119Z,39.60
2018-05-08T07:25:39.696Z,39.10
2018-05-08T07:29:12.278Z,38.70
2018-05-08T07:32:45.617Z,38.60
2018-05-08T07:36:18.187Z,38.60
2018-05-08T07:39:50.797Z,38.30
2018-05-08T07:43:23.345Z,38.30
2018-05-08T07:46:55.915Z,38.10
2018-05-08T07:50:29.236Z,37.90
2018-05-08T07:54:01.838Z,37.90
2018-05-08T07:57:34.449Z,37.30
2018-05-08T08:01:07.087Z,37.10
2018-05-08T08:04:39.860Z,36.80
2018-05-08T08:08:13.200Z,36.40
2018-05-08T08:11:45.762Z,36.40
2018-05-08T08:15:18.333Z,36.00
2018-05-08T08:18:51.652Z,35.60
2018-05-08T08:22:24.211Z,35.50
2018-05-08T08:25:57.541Z,35.50
2018-05-08T08:29:30.120Z,35.50
2018-05-08T08:33:02.676Z,35.60
2018-05-08T08:36:35.243Z,34.60
2018-05-08T08:40:07.796Z,34.10
2018-05-08T08:43:40.364Z,34.20
2018-05-08T08:47:12.924Z,34.00
2018-05-08T08:50:45.498Z,32.90
2018-05-08T08:54:18.817Z,31.80
2018-05-08T08:57:51.380Z,31.80
2018-05-08T09:01:24.701Z,31.20
2018-05-08T09:04:57.264Z,31.10
2018-05-08T09:08:30.585Z,31.20
2018-05-08T09:12:03.164Z,31.20
2018-05-08T09:15:35.724Z,31.20
2018-05-08T09:19:08.284Z,31.00
2018-05-08T09:22:40.859Z,29.10
2018-05-08T09:26:13.425Z,28.90
2018-05-08T09:29:45.988Z,28.30
2018-05-08T09:33:18.548Z,28.70
2018-05-08T09:36:51.116Z,28.70
2018-05-08T09:40:23.680Z,28.80
2018-05-08T09:43:56.243Z,28.60
2018-05-08T09:47:28.812Z,28.60
2018-05-08T09:51:01.372Z,28.90
2018-05-08T09:54:33.940Z,28.90
2018-05-08T09:58:06.499Z,29.00
2018-05-08T10:01:39.066Z,29.20
2018-05-08T10:05:11.629Z,29.30
2018-05-08T10:08:44.192Z,29.70
2018-05-08T10:12:17.529Z,29.80
2018-05-08T10:15:50.076Z,29.80
2018-05-08T10:19:22.643Z,29.80
2018-05-08T10:22:55.193Z,29.90
2018-05-08T10:26:27.769Z,30.00
2018-05-08T10:30:02.007Z,30.00
2018-05-08T10:33:34.576Z,30.00
2018-05-08T10:37:07.132Z,30.30
2018-05-08T10:40:39.715Z,30.80
2018-05-08T10:44:13.045Z,31.10
2018-05-08T10:47:45.611Z,31.10
2018-05-08T10:51:18.175Z,31.20
2018-05-08T10:54:51.511Z,30.90
2018-05-08T10:58:24.077Z,30.90
2018-05-08T11:01:56.658Z,31.10
2018-05-08T11:05:29.228Z,30.60
2018-05-08T11:09:02.597Z,29.90
2018-05-08T11:12:35.178Z,29.90
2018-05-08T11:16:07.736Z,30.00
2018-05-08T11:19:40.303Z,29.80
2018-05-08T11:23:12.885Z,29.80
2018-05-08T11:26:45.526Z,30.00
2018-05-08T11:30:18.098Z,29.70
2018-05-08T11:33:50.680Z,29.70
2018-05-08T11:37:23.288Z,30.00
2018-05-08T11:40:55.852Z,29.40
2018-05-08T11:44:28.536Z,29.20
2018-05-08T11:48:01.873Z,29.80
2018-05-08T11:51:35.204Z,29.60
2018-05-08T11:55:07.794Z,29.60
2018-05-08T11:58:40.376Z,29.20
2018-05-08T12:02:12.949Z,29.10
2018-05-08T12:05:45.517Z,29.50
2018-05-08T12:09:18.854Z,29.60
2018-05-08T12:12:51.421Z,29.60
2018-05-08T12:16:23.992Z,29.50
2018-05-08T12:19:57.321Z,29.30
2018-05-08T12:23:29.881Z,29.20
2018-05-08T12:27:02.472Z,29.30
2018-05-08T12:30:35.097Z,29.50
2018-05-08T12:34:07.629Z,29.40
2018-05-08T12:37:40.217Z,29.60
2018-05-08T12:41:12.776Z,29.40
2018-05-08T12:44:45.363Z,29.00
2018-05-08T12:48:17.933Z,29.20
2018-05-08T12:51:50.568Z,29.60
2018-05-08T12:55:23.144Z,30.10
2018-05-08T12:58:55.753Z,30.00
2018-05-08T13:02:28.324Z,30.50
2018-05-08T13:06:00.894Z,30.60
2018-05-08T13:09:33.458Z,30.00
2018-05-08T13:13:06.789Z,30.00
2018-05-08T13:16:39.384Z,30.00
2018-05-08T13:20:11.949Z,29.60
2018-05-08T13:23:44.515Z,29.20
2018-05-08T13:27:17.117Z,29.00
2018-05-08T13:30:49.673Z,28.60
2018-05-08T13:34:22.244Z,28.20
2018-05-08T13:37:54.821Z,28.20
2018-05-08T13:41:27.373Z,27.80
2018-05-08T13:44:59.940Z,27.60
2018-05-08T13:48:32.493Z,27.20
2018-05-08T13:52:05.066Z,26.90
2018-05-08T13:55:37.650Z,26.30
2018-05-08T13:59:10.217Z,26.40
2018-05-08T14:02:42.788Z,26.20
2018-05-08T14:06:15.415Z,26.00
2018-05-08T14:09:47.953Z,25.80
2018-05-08T14:13:20.573Z,25.80
2018-05-08T14:16:53.133Z,25.20
2018-05-08T14:20:25.858Z,25.20
2018-05-08T14:23:58.305Z,25.30
2018-05-08T14:27:30.865Z,25.00
2018-05-08T14:31:03.437Z,25.30
2018-05-08T14:34:36.018Z,25.10
2018-05-08T14:38:08.586Z,25.10
2018-05-08T14:41:41.245Z,24.60
2018-05-08T14:45:13.842Z,24.20
2018-05-08T14:48:46.476Z,24.30
2018-05-08T14:52:19.130Z,23.90
2018-05-08T14:55:51.692Z,24.20
2018-05-08T14:59:24.278Z,23.40
2018-05-08T15:02:56.993Z,22.90
2018-05-08T15:06:29.554Z,22.40
2018-05-08T15:10:02.900Z,22.60
2018-05-08T15:13:35.490Z,22.50
2018-05-08T15:17:08.052Z,22.60
2018-05-08T15:20:40.620Z,22.50
2018-05-08T15:24:13.199Z,22.40
2018-05-08T15:27:46.547Z,22.90
2018-05-08T15:31:19.124Z,22.80
2018-05-08T15:34:51.696Z,22.70
2018-05-08T15:38:24.276Z,22.60
2018-05-08T15:41:56.847Z,22.30
2018-05-08T15:45:29.436Z,22.80
2018-05-08T15:49:02.020Z,23.00
2018-05-08T15:52:34.596Z,22.90
2018-05-08T15:56:07.933Z,23.20
2018-05-08T15:59:40.629Z,23.20
2018-05-08T16:03:13.205Z,23.20
2018-05-08T16:06:45.772Z,23.40
2018-05-08T16:10:19.127Z,24.00
2018-05-08T16:13:51.745Z,24.00
2018-05-08T16:17:24.314Z,23.70
2018-05-08T16:20:57.708Z,23.90
2018-05-08T16:24:30.240Z,23.90
2018-05-08T16:28:02.826Z,24.60
2018-05-08T16:31:35.399Z,25.10
2018-05-08T16:35:07.984Z,25.50
2018-05-08T16:38:40.558Z,25.90
2018-05-08T16:42:13.117Z,26.10
2018-05-08T16:45:46.457Z,26.00
2018-05-08T16:49:19.033Z,26.00
2018-05-08T16:52:51.597Z,26.20
2018-05-08T16:56:24.164Z,26.40
2018-05-08T16:59:56.741Z,27.20
2018-05-08T17:03:29.314Z,26.90
2018-05-08T17:07:01.909Z,27.10
2018-05-08T17:10:34.589Z,27.20
2018-05-08T17:14:07.110Z,27.20
2018-05-08T17:17:39.708Z,27.40
2018-05-08T17:21:12.298Z,27.50
2018-05-08T17:24:44.869Z,27.70
2018-05-08T17:28:17.430Z,28.10
2018-05-08T17:31:50.801Z,28.30
2018-05-08T17:35:23.374Z,28.20
2018-05-08T17:38:55.976Z,28.40
2018-05-08T17:42:28.610Z,28.90
2018-05-08T17:46:01.213Z,29.30
2018-05-08T17:49:40.663Z,29.70
2018-05-08T17:53:13.324Z,29.90
2018-05-08T17:56:46.990Z,30.20
2018-05-08T18:00:19.550Z,30.10
2018-05-08T18:03:52.144Z,30.30
2018-05-08T18:07:24.712Z,30.40
2018-05-08T18:10:57.276Z,30.40
2018-05-08T18:14:29.830Z,30.60
2018-05-08T18:18:02.393Z,30.70
2018-05-08T18:21:35.763Z,31.00
2018-05-08T18:25:08.429Z,31.00
2018-05-08T18:28:40.996Z,31.20
2018-05-08T18:32:14.341Z,31.50
2018-05-08T18:35:46.918Z,31.50
2018-05-08T18:39:19.477Z,31.80
2018-05-08T18:42:52.048Z,32.20
2018-05-08T18:46:24.602Z,32.60
2018-05-08T18:49:57.229Z,32.80
2018-05-08T18:53:30.563Z,33.40
2018-05-08T18:57:03.125Z,33.40
2018-05-08T19:00:41.221Z,33.50
2018-05-08T19:04:14.552Z,33.90
2018-05-08T19:07:47.145Z,33.90
2018-05-08T19:11:25.303Z,34.20
2018-05-08T19:15:03.532Z,34.40
2018-05-08T19:18:42.408Z,34.70
2018-05-08T19:22:14.964Z,34.70
2018-05-08T19:25:48.293Z,35.10
2018-05-08T19:29:26.398Z,35.00
2018-05-08T19:32:58.977Z,35.20
2018-05-08T19:36:37.093Z,35.30
2018-05-08T19:40:09.683Z,35.50
2018-05-08T19:43:42.260Z,35.70
2018-05-08T19:47:14.815Z,35.90
2018-05-08T19:50:47.384Z,36.00
2018-05-08T19:54:19.944Z,36.30
2018-05-08T19:57:52.592Z,36.50
2018-05-08T20:01:25.092Z,36.70
2018-05-08T20:04:57.764Z,36.90
2018-05-08T20:08:30.325Z,37.10
2018-05-08T20:12:03.665Z,37.60
2018-05-08T20:15:36.241Z,37.50
2018-05-08T20:19:08.793Z,37.60
2018-05-08T20:22:42.125Z,38.00
2018-05-08T20:26:14.677Z,38.00
2018-05-08T20:29:48.062Z,38.20
2018-05-08T20:33:21.404Z,38.30
2018-05-08T20:36:53.963Z,38.30
2018-05-08T20:40:27.285Z,39.20
2018-05-08T20:43:59.853Z,38.60
2018-05-08T20:47:33.193Z,38.90
2018-05-08T20:51:06.753Z,38.80
2018-05-08T20:54:39.341Z,39.00
2018-05-08T20:58:12.727Z,39.20
2018-05-08T21:01:45.308Z,39.20
2018-05-08T21:05:17.872Z,39.30
2018-05-08T21:08:50.439Z,39.50
2018-05-08T21:12:22.996Z,39.50
2018-05-08T21:15:55.550Z,39.70
2018-05-08T21:19:28.114Z,39.80
2018-05-08T21:23:00.688Z,40.00
2018-05-08T21:26:33.285Z,40.10
2018-05-08T21:30:11.526Z,40.20
2018-05-08T21:33:44.857Z,40.40
2018-05-08T21:37:17.411Z,40.40
2018-05-08T21:40:49.987Z,40.50
2018-05-08T21:44:22.553Z,40.50
2018-05-08T21:47:55.107Z,40.60
2018-05-08T21:51:27.668Z,40.70
2018-05-08T21:55:00.233Z,40.90
2018-05-08T21:58:33.564Z,41.20
2018-05-08T22:02:06.128Z,41.20
2018-05-08T22:05:39.453Z,41.50
2018-05-08T22:09:12.014Z,41.50
2018-05-08T22:12:45.337Z,41.80
2018-05-08T22:16:17.928Z,41.70
2018-05-08T22:19:50.480Z,41.80
2018-05-08T22:23:23.828Z,42.50
2018-05-08T22:26:56.385Z,42.40
2018-05-08T22:30:28.949Z,42.60
2018-05-08T22:34:02.278Z,43.30
2018-05-08T22:37:34.856Z,43.30
2018-05-08T22:41:07.428Z,43.40
2018-05-08T22:44:40.740Z,43.50
2018-05-08T22:48:13.306Z,43.50
2018-05-08T22:51:46.619Z,43.80
2018-05-08T22:55:19.213Z,43.80
2018-05-08T22:58:51.772Z,43.90
2018-05-08T23:02:25.109Z,43.90
2018-05-08T23:05:57.673Z,43.90
2018-05-08T23:09:30.256Z,44.00
2018-05-08T23:13:02.808Z,44.00
2018-05-08T23:16:35.365Z,43.90
2018-05-08T23:20:07.928Z,44.00
2018-05-08T23:23:40.520Z,43.90
2018-05-08T23:27:13.108Z,43.90
2018-05-08T23:30:45.662Z,44.10
2018-05-08T23:34:18.238Z,44.20
2018-05-08T23:37:50.800Z,44.20
2018-05-08T23:41:23.365Z,44.30
2018-05-08T23:44:55.919Z,44.40
2018-05-08T23:48:28.478Z,44.30
2018-05-08T23:52:01.045Z,44.50
2018-05-08T23:55:34.357Z,44.60
2018-05-08T23:59:07.012Z,44.60
